createdAt,value
2018-11-14T00:00:27.748Z,3.77
2018-11-14T00:02:57.567Z,3.80
2018-11-14T00:05:26.692Z,3.67
2018-11-14T00:07:56.110Z,5.57
2018-11-14T00:10:25.437Z,4.80
2018-11-14T00:12:54.594Z,5.23
2018-11-14T00:15:25.030Z,5.03
2018-11-14T00:17:54.317Z,4.73
2018-11-14T00:20:23.585Z,4.53
2018-11-14T00:22:52.889Z,4.73
2018-11-14T00:25:22.202Z,4.93
2018-11-14T00:27:51.331Z,4.50
2018-11-14T00:30:22.630Z,4.23
2018-11-14T00:32:51.769Z,4.30
2018-11-14T00:35:21.034Z,6.17
2018-11-14T00:37:50.704Z,5.87
2018-11-14T00:40:20.422Z,4.63
2018-11-14T00:42:49.937Z,4.30
2018-11-14T00:45:21.141Z,4.93
2018-11-14T00:47:50.611Z,4.97
2018-11-14T00:50:20.265Z,4.93
2018-11-14T00:52:49.642Z,4.70
2018-11-14T00:55:20.892Z,4.70
2018-11-14T00:57:50.854Z,5.20
2018-11-14T01:00:22.700Z,6.57
2018-11-14T01:02:51.946Z,7.13
2018-11-14T01:05:21.331Z,6.30
2018-11-14T01:07:50.678Z,5.37
2018-11-14T01:10:20.954Z,4.30
2018-11-14T01:12:50.930Z,5.27
2018-11-14T01:15:21.510Z,5.40
2018-11-14T01:17:50.861Z,4.90
2018-11-14T01:20:21.268Z,4.63
2018-11-14T01:22:50.850Z,4.50
2018-11-14T01:25:20.377Z,4.57
2018-11-14T01:27:49.584Z,4.40
2018-11-14T01:30:20.921Z,4.13
2018-11-14T01:32:50.423Z,4.33
2018-11-14T01:35:19.900Z,4.80
2018-11-14T01:37:49.098Z,4.87
2018-11-14T01:40:21.114Z,4.50
2018-11-14T01:42:52.600Z,4.50
2018-11-14T01:45:21.930Z,4.33
2018-11-14T01:47:51.232Z,3.97
2018-11-14T01:50:20.485Z,3.80
2018-11-14T01:52:49.631Z,3.87
2018-11-14T01:55:19.936Z,4.60
2018-11-14T01:57:49.429Z,4.03
2018-11-14T02:00:20.555Z,4.10
2018-11-14T02:02:49.997Z,4.43
2018-11-14T02:05:19.198Z,4.50
2018-11-14T02:07:48.391Z,4.37
2018-11-14T02:10:18.923Z,4.37
2018-11-14T02:12:48.331Z,4.10
2018-11-14T02:15:19.929Z,4.57
2018-11-14T02:17:49.205Z,4.20
2018-11-14T02:20:18.410Z,4.37
2018-11-14T02:22:48.093Z,4.90
2018-11-14T02:25:17.902Z,4.80
2018-11-14T02:27:47.237Z,5.03
2018-11-14T02:30:19.502Z,4.67
2018-11-14T02:32:48.663Z,4.70
2018-11-14T02:35:17.783Z,5.37
2018-11-14T02:37:47.829Z,5.20
2018-11-14T02:40:19.862Z,5.00
2018-11-14T02:42:49.189Z,5.33
2018-11-14T02:45:18.506Z,4.93
2018-11-14T02:47:47.649Z,5.20
2018-11-14T02:50:17.693Z,5.30
2018-11-14T02:52:46.870Z,6.00
2018-11-14T02:55:16.923Z,5.30
2018-11-14T02:57:46.603Z,5.57
2018-11-14T03:00:18.389Z,6.17
2018-11-14T03:02:47.724Z,5.37
2018-11-14T03:05:16.943Z,5.07
2018-11-14T03:07:46.144Z,5.60
2018-11-14T03:10:17.679Z,5.87
2018-11-14T03:12:46.921Z,6.17
2018-11-14T03:15:19.567Z,8.10
2018-11-14T03:17:48.789Z,8.20
2018-11-14T03:20:20.036Z,8.70
2018-11-14T03:22:49.298Z,9.40
2018-11-14T03:25:18.508Z,8.57
2018-11-14T03:27:47.994Z,7.03
2018-11-14T03:30:18.222Z,7.20
2018-11-14T03:32:47.568Z,6.10
2018-11-14T03:35:16.767Z,6.27
2018-11-14T03:37:45.965Z,6.17
2018-11-14T03:40:16.560Z,6.73
2018-11-14T03:42:46.159Z,7.10
2018-11-14T03:45:15.775Z,7.03
2018-11-14T03:47:45.224Z,7.27
2018-11-14T03:50:14.667Z,7.37
2018-11-14T03:52:44.072Z,6.53
2018-11-14T03:55:13.365Z,7.57
2018-11-14T03:57:42.609Z,7.57
2018-11-14T04:00:14.644Z,7.43
2018-11-14T04:02:44.853Z,6.73
2018-11-14T04:05:14.088Z,8.43
2018-11-14T04:07:43.621Z,12.97
2018-11-14T04:10:13.791Z,13.57
2018-11-14T04:12:43.183Z,12.03
2018-11-14T04:15:13.775Z,12.13
2018-11-14T04:17:43.049Z,13.30
2018-11-14T04:20:13.788Z,12.83
2018-11-14T04:22:43.057Z,13.17
2018-11-14T04:25:14.808Z,11.50
2018-11-14T04:27:44.846Z,10.80
2018-11-14T04:30:15.384Z,11.17
2018-11-14T04:32:45.258Z,12.40
2018-11-14T04:35:15.652Z,12.40
2018-11-14T04:37:44.805Z,12.17
2018-11-14T04:40:17.390Z,11.83
2018-11-14T04:42:46.666Z,11.03
2018-11-14T04:45:18.647Z,11.10
2018-11-14T04:47:48.597Z,14.87
2018-11-14T04:50:20.405Z,18.80
2018-11-14T04:52:53.386Z,17.70
2018-11-14T04:55:23.964Z,15.10
2018-11-14T04:57:53.575Z,11.80
2018-11-14T05:00:24.178Z,11.50
2018-11-14T05:02:53.389Z,13.80
2018-11-14T05:05:23.984Z,9.30
2018-11-14T05:07:53.217Z,9.27
2018-11-14T05:10:23.837Z,8.57
2018-11-14T05:12:53.376Z,8.07
2018-11-14T05:15:23.798Z,7.97
2018-11-14T05:17:53.483Z,8.23
2018-11-14T05:20:22.942Z,9.50
2018-11-14T05:22:52.500Z,8.43
2018-11-14T05:25:21.908Z,9.07
2018-11-14T05:27:51.183Z,10.00
2018-11-14T05:30:21.649Z,13.57
2018-11-14T05:32:51.390Z,13.40
2018-11-14T05:35:20.521Z,15.43
2018-11-14T05:37:50.017Z,16.23
2018-11-14T05:40:21.583Z,17.70
2018-11-14T05:42:52.034Z,13.20
2018-11-14T05:45:22.638Z,12.80
2018-11-14T05:47:52.008Z,9.53
2018-11-14T05:50:23.526Z,11.97
2018-11-14T05:52:52.783Z,12.70
2018-11-14T05:55:22.047Z,9.30
2018-11-14T05:57:51.238Z,9.87
2018-11-14T06:00:26.162Z,10.70
2018-11-14T06:02:55.400Z,9.30
2018-11-14T06:05:24.743Z,9.57
2018-11-14T06:07:54.169Z,9.17
2018-11-14T06:10:23.450Z,7.53
2018-11-14T06:12:52.772Z,10.63
2018-11-14T06:15:22.660Z,7.40
2018-11-14T06:17:52.898Z,6.03
2018-11-14T06:20:22.781Z,6.33
2018-11-14T06:22:52.629Z,7.37
2018-11-14T06:25:27.915Z,7.10
2018-11-14T06:27:57.984Z,8.83
2018-11-14T06:30:27.317Z,7.10
2018-11-14T06:32:57.412Z,6.23
2018-11-14T06:35:26.597Z,6.00
2018-11-14T06:37:55.997Z,5.63
2018-11-14T06:40:25.530Z,6.57
2018-11-14T06:42:54.715Z,5.50
2018-11-14T06:45:25.174Z,6.23
2018-11-14T06:47:55.627Z,5.83
2018-11-14T06:50:24.821Z,7.03
2018-11-14T06:52:55.336Z,7.23
2018-11-14T06:55:24.719Z,5.83
2018-11-14T06:57:54.014Z,6.37
2018-11-14T07:00:25.693Z,5.67
2018-11-14T07:02:55.641Z,6.10
2018-11-14T07:05:25.291Z,12.23
2018-11-14T07:07:54.667Z,7.17
2018-11-14T07:10:25.303Z,6.57
2018-11-14T07:12:54.668Z,10.07
2018-11-14T07:15:24.232Z,7.00
2018-11-14T07:17:53.522Z,6.27
2018-11-14T07:20:27.807Z,6.77
2018-11-14T07:22:57.094Z,6.60
2018-11-14T07:25:26.222Z,6.57
2018-11-14T07:27:55.510Z,6.87
2018-11-14T07:30:26.097Z,9.20
2018-11-14T07:33:01.367Z,8.03
2018-11-14T07:35:30.646Z,8.53
2018-11-14T07:39:07.678Z,9.33
2018-11-14T07:41:38.321Z,12.07
2018-11-14T07:44:07.747Z,11.20
2018-11-14T07:46:37.410Z,16.00
2018-11-14T07:49:07.184Z,13.37
2018-11-14T07:51:36.445Z,14.47
2018-11-14T07:54:05.731Z,12.97
2018-11-14T07:56:34.908Z,14.57
2018-11-14T07:59:04.234Z,13.57
2018-11-14T08:01:33.511Z,14.07
2018-11-14T08:04:02.866Z,15.53
2018-11-14T08:06:32.143Z,14.63
2018-11-14T08:09:01.233Z,14.33
2018-11-14T08:11:30.518Z,14.50
2018-11-14T08:13:59.819Z,13.50
2018-11-14T08:16:29.114Z,15.77
2018-11-14T08:18:58.841Z,14.67
2018-11-14T08:21:28.159Z,13.83
2018-11-14T08:23:57.429Z,13.17
2018-11-14T08:26:26.862Z,14.13
2018-11-14T08:28:56.161Z,12.73
2018-11-14T08:31:25.443Z,12.53
2018-11-14T08:33:54.604Z,13.70
2018-11-14T08:36:23.830Z,12.03
2018-11-14T08:38:52.981Z,13.03
2018-11-14T08:41:22.189Z,12.77
2018-11-14T08:43:51.535Z,13.00
2018-11-14T08:46:20.833Z,13.23
2018-11-14T08:48:50.257Z,18.57
2018-11-14T08:51:19.546Z,12.73
2018-11-14T08:53:48.732Z,12.70
2018-11-14T08:56:18.122Z,13.37
2018-11-14T08:58:47.354Z,12.23
2018-11-14T09:01:16.740Z,12.83
2018-11-14T09:03:46.077Z,12.67
2018-11-14T09:06:15.529Z,12.20
2018-11-14T09:08:45.259Z,11.00
2018-11-14T09:11:14.770Z,12.07
2018-11-14T09:13:43.965Z,12.87
2018-11-14T09:16:14.365Z,12.20
2018-11-14T09:18:43.577Z,12.97
2018-11-14T09:21:12.898Z,12.10
2018-11-14T09:23:42.189Z,14.40
2018-11-14T09:26:11.559Z,13.43
2018-11-14T09:28:40.858Z,13.00
2018-11-14T09:31:10.114Z,12.37
2018-11-14T09:33:39.303Z,12.90
2018-11-14T09:36:08.486Z,13.13
2018-11-14T09:38:39.012Z,12.13
2018-11-14T09:41:08.439Z,12.93
2018-11-14T09:43:37.889Z,13.73
2018-11-14T09:46:07.182Z,12.23
2018-11-14T09:48:36.483Z,14.20
2018-11-14T09:51:06.018Z,13.43
2018-11-14T09:53:35.514Z,15.10
2018-11-14T09:56:04.822Z,14.63
2018-11-14T09:58:34.124Z,13.40
2018-11-14T10:01:03.998Z,14.93
2018-11-14T10:03:33.171Z,16.80
2018-11-14T10:06:02.576Z,15.03
2018-11-14T10:08:32.138Z,13.63
2018-11-14T10:11:01.274Z,16.23
2018-11-14T10:13:30.542Z,14.93
2018-11-14T10:16:00.082Z,13.77
2018-11-14T10:18:29.505Z,16.23
2018-11-14T10:20:58.975Z,15.50
2018-11-14T10:23:28.425Z,15.67
2018-11-14T10:25:57.566Z,16.07
2018-11-14T10:28:26.761Z,16.93
2018-11-14T10:30:56.204Z,16.10
2018-11-14T10:33:25.659Z,16.93
2018-11-14T10:35:54.867Z,16.07
2018-11-14T10:38:24.207Z,16.50
2018-11-14T10:40:53.452Z,16.70
2018-11-14T10:43:22.687Z,15.47
2018-11-14T10:45:51.966Z,15.47
2018-11-14T10:48:21.365Z,14.87
2018-11-14T10:50:50.604Z,16.27
2018-11-14T10:53:20.104Z,17.17
2018-11-14T10:55:49.368Z,17.03
2018-11-14T10:58:18.469Z,17.17
2018-11-14T11:01:51.471Z,17.30
2018-11-14T11:04:25.665Z,16.57
2018-11-14T11:06:59.840Z,18.17
2018-11-14T11:09:33.964Z,16.47
2018-11-14T11:12:08.327Z,15.00
2018-11-14T11:15:40.280Z,16.70
2018-11-14T11:18:11.556Z,17.47
2018-11-14T11:20:41.011Z,19.47
2018-11-14T11:23:10.311Z,19.20
2018-11-14T11:25:39.848Z,18.87
2018-11-14T11:28:09.241Z,17.17
2018-11-14T11:30:38.864Z,18.33
2018-11-14T11:33:08.197Z,18.80
2018-11-14T11:35:37.366Z,19.10
2018-11-14T11:38:07.102Z,20.13
2018-11-14T11:40:36.430Z,21.80
2018-11-14T11:43:06.121Z,22.83
2018-11-14T11:45:35.863Z,27.17
2018-11-14T11:48:05.436Z,18.67
2018-11-14T11:50:34.666Z,21.50
2018-11-14T11:53:03.782Z,34.63
2018-11-14T11:55:32.948Z,19.27
2018-11-14T11:58:02.178Z,19.17
2018-11-14T12:00:31.483Z,18.60
2018-11-14T12:03:01.015Z,18.80
2018-11-14T12:05:30.157Z,26.07
2018-11-14T12:07:59.377Z,21.03
2018-11-14T12:10:28.813Z,18.30
2018-11-14T12:12:58.374Z,18.17
2018-11-14T12:15:27.665Z,18.90
2018-11-14T12:17:56.908Z,17.53
2018-11-14T12:20:26.391Z,17.87
2018-11-14T12:22:55.483Z,16.57
2018-11-14T12:25:24.892Z,18.87
2018-11-14T12:27:54.787Z,17.60
2018-11-14T12:30:23.946Z,18.13
2018-11-14T12:32:54.343Z,18.43
2018-11-14T12:35:23.521Z,18.30
2018-11-14T12:37:53.018Z,18.43
2018-11-14T12:40:22.544Z,18.63
2018-11-14T12:42:51.791Z,18.30
2018-11-14T12:45:20.932Z,17.57
2018-11-14T12:47:50.673Z,18.50
2018-11-14T12:50:20.030Z,17.73
2018-11-14T12:52:49.404Z,18.60
2018-11-14T12:55:19.293Z,16.47
2018-11-14T12:57:48.645Z,18.83
2018-11-14T13:00:18.990Z,19.67
2018-11-14T13:02:48.461Z,18.40
2018-11-14T13:05:17.750Z,19.67
2018-11-14T13:07:47.049Z,19.47
2018-11-14T13:10:17.641Z,17.97
2018-11-14T13:12:47.877Z,18.60
2018-11-14T13:15:18.347Z,22.70
2018-11-14T13:17:48.662Z,18.83
2018-11-14T13:20:19.996Z,19.37
2018-11-14T13:22:49.323Z,19.80
2018-11-14T13:25:18.610Z,20.23
2018-11-14T13:27:48.749Z,19.97
2018-11-14T13:30:19.346Z,19.57
2018-11-14T13:32:49.742Z,19.70
2018-11-14T13:35:19.904Z,19.97
2018-11-14T13:37:50.193Z,21.00
2018-11-14T13:40:19.427Z,19.73
2018-11-14T13:42:48.630Z,21.70
2018-11-14T13:45:18.482Z,19.40
2018-11-14T13:47:47.770Z,19.83
2018-11-14T13:50:20.432Z,21.03
2018-11-14T13:52:50.359Z,21.63
2018-11-14T13:55:20.182Z,21.07
2018-11-14T13:57:50.584Z,21.47
2018-11-14T14:00:21.074Z,25.37
2018-11-14T14:02:51.181Z,26.37
2018-11-14T14:05:21.695Z,26.67
2018-11-14T14:07:50.897Z,27.70
2018-11-14T14:10:20.250Z,27.60
2018-11-14T14:12:50.974Z,25.33
2018-11-14T14:15:25.398Z,26.20
2018-11-14T14:17:55.011Z,26.13
2018-11-14T14:20:24.669Z,28.20
2018-11-14T14:22:54.058Z,26.40
2018-11-14T14:25:24.207Z,25.40
2018-11-14T14:27:53.359Z,23.03
2018-11-14T14:30:23.491Z,22.93
2018-11-14T14:32:53.057Z,21.77
2018-11-14T14:35:23.089Z,22.83
2018-11-14T14:37:52.797Z,24.17
2018-11-14T14:40:22.969Z,23.27
2018-11-14T14:42:52.269Z,24.03
2018-11-14T14:45:23.989Z,23.53
2018-11-14T14:47:53.196Z,24.27
2018-11-14T14:50:25.000Z,29.20
2018-11-14T14:53:02.023Z,26.47
2018-11-14T14:55:34.142Z,27.23
2018-11-14T14:58:09.987Z,22.73
2018-11-14T15:00:49.386Z,23.43
2018-11-14T15:03:18.591Z,24.07
2018-11-14T15:05:50.538Z,23.63
2018-11-14T15:08:22.092Z,25.13
2018-11-14T15:10:53.437Z,23.67
2018-11-14T15:13:26.585Z,25.33
2018-11-14T15:15:56.833Z,28.13
2018-11-14T15:18:26.908Z,28.67
2018-11-14T15:21:08.515Z,28.47
2018-11-14T15:23:39.510Z,27.50
2018-11-14T15:26:08.926Z,26.13
2018-11-14T15:28:38.319Z,28.00
2018-11-14T15:31:07.711Z,24.73
2018-11-14T15:33:37.178Z,25.30
2018-11-14T15:36:06.677Z,28.87
2018-11-14T15:38:36.162Z,26.90
2018-11-14T15:41:05.959Z,25.50
2018-11-14T15:43:35.214Z,25.87
2018-11-14T15:46:04.367Z,25.67
2018-11-14T15:48:33.611Z,29.50
2018-11-14T15:51:03.073Z,30.27
2018-11-14T15:53:32.373Z,25.80
2018-11-14T15:56:01.662Z,25.60
2018-11-14T15:58:30.868Z,25.33
2018-11-14T16:01:00.110Z,24.93
2018-11-14T16:03:29.290Z,27.60
2018-11-14T16:05:58.458Z,24.43
2018-11-14T16:08:27.635Z,24.63
2018-11-14T16:10:57.007Z,24.47
2018-11-14T16:13:26.362Z,25.03
2018-11-14T16:15:55.555Z,24.13
2018-11-14T16:18:24.994Z,29.23
2018-11-14T16:20:54.282Z,28.03
2018-11-14T16:23:23.442Z,25.33
2018-11-14T16:25:52.719Z,20.73
2018-11-14T16:28:22.134Z,23.20
2018-11-14T16:30:51.389Z,20.83
2018-11-14T16:33:21.725Z,21.43
2018-11-14T16:35:51.083Z,21.00
2018-11-14T16:38:20.366Z,19.10
2018-11-14T16:40:49.818Z,20.40
2018-11-14T16:43:19.114Z,21.43
2018-11-14T16:45:48.482Z,21.93
2018-11-14T16:48:17.738Z,21.63
2018-11-14T16:50:47.506Z,23.83
2018-11-14T16:53:18.274Z,24.43
2018-11-14T16:55:49.130Z,23.37
2018-11-14T16:58:21.957Z,21.90
2018-11-14T17:00:55.342Z,21.70
2018-11-14T17:03:24.822Z,21.83
2018-11-14T17:05:53.964Z,23.37
2018-11-14T17:08:23.781Z,22.57
2018-11-14T17:10:53.213Z,22.07
2018-11-14T17:13:23.451Z,22.63
2018-11-14T17:15:53.566Z,23.73
2018-11-14T17:18:23.119Z,24.63
2018-11-14T17:20:52.434Z,24.90
2018-11-14T17:23:21.835Z,24.80
2018-11-14T17:25:50.997Z,25.00
2018-11-14T17:28:20.240Z,27.63
2018-11-14T17:30:49.446Z,27.43
2018-11-14T17:33:18.851Z,29.07
2018-11-14T17:35:48.122Z,28.10
2018-11-14T17:38:17.606Z,28.67
2018-11-14T17:40:46.743Z,29.83
2018-11-14T17:43:15.998Z,33.70
2018-11-14T17:45:46.411Z,34.57
2018-11-14T17:48:15.636Z,31.97
2018-11-14T17:50:44.836Z,36.60
2018-11-14T17:53:19.687Z,37.83
2018-11-14T17:55:49.516Z,35.83
2018-11-14T17:58:18.916Z,33.03
2018-11-14T18:00:48.397Z,32.57
2018-11-14T18:03:17.673Z,33.80
2018-11-14T18:05:47.166Z,40.00
2018-11-14T18:08:16.465Z,43.00
2018-11-14T18:10:45.788Z,54.93
2018-11-14T18:13:14.929Z,59.80
2018-11-14T18:15:44.588Z,43.50
2018-11-14T18:18:14.518Z,42.73
2018-11-14T18:20:44.089Z,47.00
2018-11-14T18:23:13.275Z,50.70
2018-11-14T18:25:42.607Z,70.93
2018-11-14T18:28:12.433Z,60.27
2018-11-14T18:30:41.753Z,61.57
2018-11-14T18:33:11.209Z,56.27
2018-11-14T18:35:40.546Z,56.50
2018-11-14T18:38:09.898Z,50.50
2018-11-14T18:40:39.116Z,45.80
2018-11-14T18:43:08.555Z,49.33
2018-11-14T18:45:37.876Z,50.97
2018-11-14T18:48:07.629Z,53.00
2018-11-14T18:50:36.875Z,79.47
2018-11-14T18:53:06.122Z,77.07
2018-11-14T18:55:35.820Z,104.43
2018-11-14T18:58:06.558Z,95.33
2018-11-14T19:00:36.178Z,87.37
2018-11-14T19:03:05.728Z,75.63
2018-11-14T19:05:34.907Z,73.30
2018-11-14T19:08:04.133Z,67.67
2018-11-14T19:10:34.551Z,65.60
2018-11-14T19:13:03.742Z,49.70
2018-11-14T19:15:34.391Z,45.93
2018-11-14T19:18:03.538Z,49.23
2018-11-14T19:20:33.711Z,54.10
2018-11-14T19:23:03.899Z,44.53
2018-11-14T19:25:34.361Z,55.33
2018-11-14T19:28:04.203Z,45.77
2018-11-14T19:30:35.510Z,51.30
2018-11-14T19:33:05.103Z,42.60
2018-11-14T19:35:34.387Z,42.20
2018-11-14T19:38:03.913Z,53.33
2018-11-14T19:40:34.736Z,65.20
2018-11-14T19:43:05.577Z,58.20
2018-11-14T19:45:36.025Z,60.27
2018-11-14T19:48:05.275Z,61.77
2018-11-14T19:50:34.451Z,60.40
2018-11-14T19:53:04.915Z,62.33
2018-11-14T19:55:34.906Z,59.47
2018-11-14T19:58:05.317Z,56.93
2018-11-14T20:00:35.523Z,59.03
2018-11-14T20:03:04.919Z,64.63
2018-11-14T20:05:34.037Z,61.60
2018-11-14T20:08:03.156Z,63.60
2018-11-14T20:10:33.626Z,64.47
2018-11-14T20:13:03.097Z,80.03
2018-11-14T20:15:33.714Z,71.70
2018-11-14T20:18:02.999Z,71.83
2018-11-14T20:20:34.890Z,69.97
2018-11-14T20:23:04.216Z,69.53
2018-11-14T20:25:33.462Z,65.50
2018-11-14T20:28:06.014Z,68.17
2018-11-14T20:30:36.868Z,60.90
2018-11-14T20:33:08.585Z,59.83
2018-11-14T20:35:37.943Z,59.80
2018-11-14T20:38:07.292Z,59.27
2018-11-14T20:40:40.450Z,62.90
2018-11-14T20:43:09.750Z,59.77
2018-11-14T20:45:39.583Z,62.33
2018-11-14T20:48:08.959Z,55.00
2018-11-14T20:50:38.263Z,54.20
2018-11-14T20:53:07.459Z,50.33
2018-11-14T20:55:37.221Z,50.40
2018-11-14T20:58:07.037Z,56.40
2018-11-14T21:00:37.395Z,50.57
2018-11-14T21:03:07.382Z,52.10
2018-11-14T21:05:37.073Z,53.23
2018-11-14T21:08:06.736Z,56.23
2018-11-14T21:10:36.219Z,53.20
2018-11-14T21:13:06.292Z,50.07
2018-11-14T21:15:36.844Z,39.10
2018-11-14T21:18:06.744Z,42.27
2018-11-14T21:20:35.881Z,36.57
2018-11-14T21:23:05.246Z,35.33
2018-11-14T21:25:34.930Z,32.67
2018-11-14T21:28:04.289Z,33.10
2018-11-14T21:30:33.416Z,34.27
2018-11-14T21:33:02.654Z,31.00
2018-11-14T21:35:35.230Z,37.13
2018-11-14T21:38:06.031Z,34.10
2018-11-14T21:40:35.457Z,35.20
2018-11-14T21:43:04.711Z,32.73
2018-11-14T21:45:34.046Z,32.57
2018-11-14T21:48:08.413Z,35.53
2018-11-14T21:50:37.720Z,38.60
2018-11-14T21:53:07.031Z,39.93
2018-11-14T21:55:36.355Z,34.27
2018-11-14T21:58:05.822Z,33.83
2018-11-14T22:00:36.958Z,35.90
2018-11-14T22:03:07.228Z,38.30
2018-11-14T22:05:36.697Z,39.93
2018-11-14T22:08:05.909Z,39.63
2018-11-14T22:10:35.052Z,36.47
2018-11-14T22:13:04.462Z,35.53
2018-11-14T22:15:33.590Z,37.23
2018-11-14T22:18:02.902Z,38.60
2018-11-14T22:20:32.166Z,42.60
2018-11-14T22:23:01.471Z,48.47
2018-11-14T22:25:31.127Z,72.93
2018-11-14T22:28:00.534Z,60.37
2018-11-14T22:30:31.121Z,41.33
2018-11-14T22:33:00.332Z,40.30
2018-11-14T22:35:30.715Z,88.43
2018-11-14T22:38:00.371Z,89.57
2018-11-14T22:40:30.687Z,47.87
2018-11-14T22:42:59.974Z,41.90
2018-11-14T22:45:30.449Z,41.07
2018-11-14T22:47:59.743Z,47.50
2018-11-14T22:50:28.795Z,51.40
2018-11-14T22:52:58.272Z,49.07
2018-11-14T22:55:27.583Z,58.37
2018-11-14T22:57:56.918Z,52.07
2018-11-14T23:00:29.118Z,56.53
2018-11-14T23:03:00.459Z,49.73
2018-11-14T23:05:30.074Z,49.13
2018-11-14T23:07:59.627Z,47.93
2018-11-14T23:10:28.913Z,57.67
2018-11-14T23:12:58.299Z,60.57
2018-11-14T23:15:27.540Z,50.60
2018-11-14T23:17:57.064Z,48.70
2018-11-14T23:20:26.679Z,51.50
2018-11-14T23:22:56.213Z,48.43
2018-11-14T23:25:25.691Z,46.63
2018-11-14T23:27:55.826Z,46.67
2018-11-14T23:30:26.289Z,46.70
2018-11-14T23:32:56.344Z,45.67
2018-11-14T23:35:27.424Z,46.63
2018-11-14T23:38:00.735Z,48.30
2018-11-14T23:40:30.060Z,44.53
2018-11-14T23:42:59.174Z,44.70
2018-11-14T23:45:29.182Z,46.10
2018-11-14T23:47:58.381Z,43.77
2018-11-14T23:50:31.771Z,44.30
2018-11-14T23:53:01.749Z,48.43
2018-11-14T23:55:31.726Z,47.10
2018-11-14T23:58:01.009Z,46.10
